sensor_id;sensor_type;location;lat;lon;timestamp;temperature;humidity
2407;DHT22;37709;53.480;9.688;2022-10-16T00:01:24;12.40;99.90
2407;DHT22;37709;53.480;9.688;2022-10-16T00:03:52;12.40;99.90
2407;DHT22;37709;53.480;9.688;2022-10-16T00:06:21;12.40;99.90
2407;DHT22;37709;53.480;9.688;2022-10-16T00:08:49;12.40;99.90
2407;DHT22;37709;53.480;9.688;2022-10-16T00:11:22;12.40;99.90
2407;DHT22;37709;53.480;9.688;2022-10-16T00:13:51;12.50;99.90
2407;DHT22;37709;53.480;9.688;2022-10-16T00:16:19;12.40;99.90
2407;DHT22;37709;53.480;9.688;2022-10-16T00:18:47;12.40;99.90
2407;DHT22;37709;53.480;9.688;2022-10-16T00:21:20;12.30;99.90
2407;DHT22;37709;53.480;9.688;2022-10-16T00:24:08;12.30;99.90
2407;DHT22;37709;53.480;9.688;2022-10-16T00:26:36;12.20;99.90
2407;DHT22;37709;53.480;9.688;2022-10-16T00:29:05;12.20;99.90
2407;DHT22;37709;53.480;9.688;2022-10-16T00:31:33;12.10;99.90
2407;DHT22;37709;53.480;9.688;2022-10-16T00:34:01;12.10;99.90
2407;DHT22;37709;53.480;9.688;2022-10-16T00:36:28;12.00;99.90
2407;DHT22;37709;53.480;9.688;2022-10-16T00:38:57;12.10;99.90
2407;DHT22;37709;53.480;9.688;2022-10-16T00:41:32;12.10;99.90
2407;DHT22;37709;53.480;9.688;2022-10-16T00:44:03;12.10;99.90
2407;DHT22;37709;53.480;9.688;2022-10-16T00:46:50;12.00;99.90
2407;DHT22;37709;53.480;9.688;2022-10-16T00:49:18;11.90;99.90
2407;DHT22;37709;53.480;9.688;2022-10-16T00:51:49;11.90;99.90
2407;DHT22;37709;53.480;9.688;2022-10-16T00:54:23;11.70;99.90
2407;DHT22;37709;53.480;9.688;2022-10-16T00:56:53;11.70;99.90
2407;DHT22;37709;53.480;9.688;2022-10-16T00:59:39;11.70;99.90
2407;DHT22;37709;53.480;9.688;2022-10-16T01:02:11;11.70;99.90
2407;DHT22;37709;53.480;9.688;2022-10-16T01:04:45;11.80;99.90
2407;DHT22;37709;53.480;9.688;2022-10-16T01:07:35;11.70;99.90
2407;DHT22;37709;53.480;9.688;2022-10-16T01:12:59;11.50;99.90
2407;DHT22;37709;53.480;9.688;2022-10-16T01:15:36;11.60;99.90
2407;DHT22;37709;53.480;9.688;2022-10-16T01:21:04;11.50;99.90
2407;DHT22;37709;53.480;9.688;2022-10-16T01:23:54;11.50;99.90
2407;DHT22;37709;53.480;9.688;2022-10-16T01:26:28;11.40;99.90
2407;DHT22;37709;53.480;9.688;2022-10-16T01:31:59;11.40;99.90
2407;DHT22;37709;53.480;9.688;2022-10-16T01:34:33;11.40;99.90
2407;DHT22;37709;53.480;9.688;2022-10-16T01:37:07;11.30;99.90
2407;DHT22;37709;53.480;9.688;2022-10-16T01:39:38;11.30;99.90
2407;DHT22;37709;53.480;9.688;2022-10-16T01:42:15;11.30;99.90
2407;DHT22;37709;53.480;9.688;2022-10-16T01:44:46;11.30;99.90
2407;DHT22;37709;53.480;9.688;2022-10-16T01:47:15;11.30;99.90
2407;DHT22;37709;53.480;9.688;2022-10-16T01:49:45;11.40;99.90
2407;DHT22;37709;53.480;9.688;2022-10-16T01:52:17;11.40;99.90
2407;DHT22;37709;53.480;9.688;2022-10-16T01:54:47;11.30;99.90
2407;DHT22;37709;53.480;9.688;2022-10-16T01:57:17;11.30;99.90
2407;DHT22;37709;53.480;9.688;2022-10-16T01:59:52;11.30;99.90
2407;DHT22;37709;53.480;9.688;2022-10-16T02:02:22;11.40;99.90
2407;DHT22;37709;53.480;9.688;2022-10-16T02:05:37;11.50;99.90
2407;DHT22;37709;53.480;9.688;2022-10-16T02:07:54;11.50;99.90
2407;DHT22;37709;53.480;9.688;2022-10-16T02:10:24;11.40;99.90
2407;DHT22;37709;53.480;9.688;2022-10-16T02:13:04;11.30;99.90
2407;DHT22;37709;53.480;9.688;2022-10-16T02:15:32;11.30;99.90
2407;DHT22;37709;53.480;9.688;2022-10-16T02:18:00;11.20;99.90
2407;DHT22;37709;53.480;9.688;2022-10-16T02:20:34;11.20;99.90
2407;DHT22;37709;53.480;9.688;2022-10-16T02:23:04;11.10;99.90
2407;DHT22;37709;53.480;9.688;2022-10-16T02:25:35;11.00;99.90
2407;DHT22;37709;53.480;9.688;2022-10-16T02:28:13;10.90;99.90
2407;DHT22;37709;53.480;9.688;2022-10-16T02:30:56;10.80;99.90
2407;DHT22;37709;53.480;9.688;2022-10-16T02:33:25;10.90;99.90
2407;DHT22;37709;53.480;9.688;2022-10-16T02:35:54;10.80;99.90
2407;DHT22;37709;53.480;9.688;2022-10-16T02:38:23;10.80;99.90
2407;DHT22;37709;53.480;9.688;2022-10-16T02:40:52;10.90;99.90
2407;DHT22;37709;53.480;9.688;2022-10-16T02:43:19;10.80;99.90
2407;DHT22;37709;53.480;9.688;2022-10-16T02:45:47;10.80;99.90
2407;DHT22;37709;53.480;9.688;2022-10-16T02:48:14;10.80;99.90
2407;DHT22;37709;53.480;9.688;2022-10-16T02:50:42;10.70;99.90
2407;DHT22;37709;53.480;9.688;2022-10-16T02:53:09;10.60;99.90
2407;DHT22;37709;53.480;9.688;2022-10-16T02:55:37;10.70;99.90
2407;DHT22;37709;53.480;9.688;2022-10-16T02:58:05;10.50;99.90
2407;DHT22;37709;53.480;9.688;2022-10-16T03:00:33;10.50;99.90
2407;DHT22;37709;53.480;9.688;2022-10-16T03:03:01;10.50;99.90
2407;DHT22;37709;53.480;9.688;2022-10-16T03:05:29;10.60;99.90
2407;DHT22;37709;53.480;9.688;2022-10-16T03:07:58;10.60;99.90
2407;DHT22;37709;53.480;9.688;2022-10-16T03:10:27;10.60;99.90
2407;DHT22;37709;53.480;9.688;2022-10-16T03:12:54;10.50;99.90
2407;DHT22;37709;53.480;9.688;2022-10-16T03:15:22;10.50;99.90
2407;DHT22;37709;53.480;9.688;2022-10-16T03:17:49;10.60;99.90
2407;DHT22;37709;53.480;9.688;2022-10-16T03:20:16;10.70;99.90
2407;DHT22;37709;53.480;9.688;2022-10-16T03:22:44;10.70;99.90
2407;DHT22;37709;53.480;9.688;2022-10-16T03:25:12;10.60;99.90
2407;DHT22;37709;53.480;9.688;2022-10-16T03:27:40;10.60;99.90
2407;DHT22;37709;53.480;9.688;2022-10-16T03:30:08;10.60;99.90
2407;DHT22;37709;53.480;9.688;2022-10-16T03:32:36;10.70;99.90
2407;DHT22;37709;53.480;9.688;2022-10-16T03:35:03;10.60;99.90
2407;DHT22;37709;53.480;9.688;2022-10-16T03:37:31;10.60;99.90
2407;DHT22;37709;53.480;9.688;2022-10-16T03:39:58;10.70;99.90
2407;DHT22;37709;53.480;9.688;2022-10-16T03:42:26;10.70;99.90
2407;DHT22;37709;53.480;9.688;2022-10-16T03:44:53;10.60;99.90
2407;DHT22;37709;53.480;9.688;2022-10-16T03:47:21;10.70;99.90
2407;DHT22;37709;53.480;9.688;2022-10-16T03:49:50;10.70;99.90
2407;DHT22;37709;53.480;9.688;2022-10-16T03:52:18;10.70;99.90
2407;DHT22;37709;53.480;9.688;2022-10-16T03:54:50;10.90;99.90
2407;DHT22;37709;53.480;9.688;2022-10-16T03:57:17;10.80;99.90
2407;DHT22;37709;53.480;9.688;2022-10-16T03:59:45;10.70;99.90
2407;DHT22;37709;53.480;9.688;2022-10-16T04:02:13;10.70;99.90
2407;DHT22;37709;53.480;9.688;2022-10-16T04:04:40;10.60;99.90
2407;DHT22;37709;53.480;9.688;2022-10-16T04:07:07;10.50;99.90
2407;DHT22;37709;53.480;9.688;2022-10-16T04:09:37;10.60;99.90
2407;DHT22;37709;53.480;9.688;2022-10-16T04:12:05;10.50;99.90
2407;DHT22;37709;53.480;9.688;2022-10-16T04:14:33;10.50;99.90
2407;DHT22;37709;53.480;9.688;2022-10-16T04:17:01;10.50;99.90
2407;DHT22;37709;53.480;9.688;2022-10-16T04:19:28;10.60;99.90
2407;DHT22;37709;53.480;9.688;2022-10-16T04:21:55;10.60;99.90
2407;DHT22;37709;53.480;9.688;2022-10-16T04:24:23;10.60;99.90
2407;DHT22;37709;53.480;9.688;2022-10-16T04:26:50;10.60;99.90
2407;DHT22;37709;53.480;9.688;2022-10-16T04:29:18;10.50;99.90
2407;DHT22;37709;53.480;9.688;2022-10-16T04:31:46;10.50;99.90
2407;DHT22;37709;53.480;9.688;2022-10-16T04:34:14;10.40;99.90
2407;DHT22;37709;53.480;9.688;2022-10-16T04:36:41;10.30;99.90
2407;DHT22;37709;53.480;9.688;2022-10-16T04:39:09;10.30;99.90
2407;DHT22;37709;53.480;9.688;2022-10-16T04:41:36;10.30;99.90
2407;DHT22;37709;53.480;9.688;2022-10-16T04:44:04;10.30;99.90
2407;DHT22;37709;53.480;9.688;2022-10-16T04:46:32;10.30;99.90
2407;DHT22;37709;53.480;9.688;2022-10-16T04:49:00;10.20;99.90
2407;DHT22;37709;53.480;9.688;2022-10-16T04:51:27;10.20;99.90
2407;DHT22;37709;53.480;9.688;2022-10-16T04:53:55;10.10;99.90
2407;DHT22;37709;53.480;9.688;2022-10-16T04:56:22;10.00;99.90
2407;DHT22;37709;53.480;9.688;2022-10-16T04:58:50;10.00;99.90
2407;DHT22;37709;53.480;9.688;2022-10-16T05:01:18;10.00;99.90
2407;DHT22;37709;53.480;9.688;2022-10-16T05:03:45;10.00;99.90
2407;DHT22;37709;53.480;9.688;2022-10-16T05:06:13;10.10;99.90
2407;DHT22;37709;53.480;9.688;2022-10-16T05:08:40;10.00;99.90
2407;DHT22;37709;53.480;9.688;2022-10-16T05:11:08;10.10;99.90
2407;DHT22;37709;53.480;9.688;2022-10-16T05:13:35;10.10;99.90
2407;DHT22;37709;53.480;9.688;2022-10-16T05:16:03;10.00;99.90
2407;DHT22;37709;53.480;9.688;2022-10-16T05:18:30;10.00;99.90
2407;DHT22;37709;53.480;9.688;2022-10-16T05:20:58;10.00;99.90
2407;DHT22;37709;53.480;9.688;2022-10-16T05:23:25;9.90;99.90
2407;DHT22;37709;53.480;9.688;2022-10-16T05:25:54;10.00;99.90
2407;DHT22;37709;53.480;9.688;2022-10-16T05:28:22;10.10;99.90
2407;DHT22;37709;53.480;9.688;2022-10-16T05:30:49;10.10;99.90
2407;DHT22;37709;53.480;9.688;2022-10-16T05:33:16;10.10;99.90
2407;DHT22;37709;53.480;9.688;2022-10-16T05:35:44;10.20;99.90
2407;DHT22;37709;53.480;9.688;2022-10-16T05:38:12;10.30;99.90
2407;DHT22;37709;53.480;9.688;2022-10-16T05:40:39;10.30;99.90
2407;DHT22;37709;53.480;9.688;2022-10-16T05:43:06;10.30;99.90
2407;DHT22;37709;53.480;9.688;2022-10-16T05:45:34;10.40;99.90
2407;DHT22;37709;53.480;9.688;2022-10-16T05:48:01;10.40;99.90
2407;DHT22;37709;53.480;9.688;2022-10-16T05:50:29;10.50;99.90
2407;DHT22;37709;53.480;9.688;2022-10-16T05:52:56;10.50;99.90
2407;DHT22;37709;53.480;9.688;2022-10-16T05:55:25;10.60;99.90
2407;DHT22;37709;53.480;9.688;2022-10-16T05:57:54;10.60;99.90
2407;DHT22;37709;53.480;9.688;2022-10-16T06:00:22;10.70;99.90
2407;DHT22;37709;53.480;9.688;2022-10-16T06:02:49;10.70;99.90
2407;DHT22;37709;53.480;9.688;2022-10-16T06:05:17;10.60;99.90
2407;DHT22;37709;53.480;9.688;2022-10-16T06:07:44;10.50;99.90
2407;DHT22;37709;53.480;9.688;2022-10-16T06:10:12;10.40;99.90
2407;DHT22;37709;53.480;9.688;2022-10-16T06:12:39;10.30;99.90
2407;DHT22;37709;53.480;9.688;2022-10-16T06:15:07;10.40;99.90
2407;DHT22;37709;53.480;9.688;2022-10-16T06:17:35;10.40;99.90
2407;DHT22;37709;53.480;9.688;2022-10-16T06:20:02;10.30;99.90
2407;DHT22;37709;53.480;9.688;2022-10-16T06:22:31;10.30;99.90
2407;DHT22;37709;53.480;9.688;2022-10-16T06:24:59;10.30;99.90
2407;DHT22;37709;53.480;9.688;2022-10-16T06:27:26;10.40;99.90
2407;DHT22;37709;53.480;9.688;2022-10-16T06:29:55;10.50;99.90
2407;DHT22;37709;53.480;9.688;2022-10-16T06:32:22;10.50;99.90
2407;DHT22;37709;53.480;9.688;2022-10-16T06:34:49;10.60;99.90
2407;DHT22;37709;53.480;9.688;2022-10-16T06:37:17;10.70;99.90
2407;DHT22;37709;53.480;9.688;2022-10-16T06:39:44;10.70;99.90
2407;DHT22;37709;53.480;9.688;2022-10-16T06:42:12;10.80;99.90
2407;DHT22;37709;53.480;9.688;2022-10-16T06:44:40;11.00;99.90
2407;DHT22;37709;53.480;9.688;2022-10-16T06:47:08;11.40;99.90
2407;DHT22;37709;53.480;9.688;2022-10-16T06:49:35;12.10;99.90
2407;DHT22;37709;53.480;9.688;2022-10-16T06:52:03;13.10;99.90
2407;DHT22;37709;53.480;9.688;2022-10-16T06:54:30;14.00;99.90
2407;DHT22;37709;53.480;9.688;2022-10-16T06:57:08;14.50;99.90
2407;DHT22;37709;53.480;9.688;2022-10-16T06:59:35;15.10;99.90
2407;DHT22;37709;53.480;9.688;2022-10-16T07:02:03;15.20;99.90
2407;DHT22;37709;53.480;9.688;2022-10-16T07:04:30;14.60;99.90
2407;DHT22;37709;53.480;9.688;2022-10-16T07:07:00;15.00;99.90
2407;DHT22;37709;53.480;9.688;2022-10-16T07:09:30;15.20;99.90
2407;DHT22;37709;53.480;9.688;2022-10-16T07:11:58;14.40;99.90
2407;DHT22;37709;53.480;9.688;2022-10-16T07:14:25;13.80;99.90
2407;DHT22;37709;53.480;9.688;2022-10-16T07:16:53;13.50;99.90
2407;DHT22;37709;53.480;9.688;2022-10-16T07:19:21;13.30;99.90
2407;DHT22;37709;53.480;9.688;2022-10-16T07:21:49;13.40;99.90
2407;DHT22;37709;53.480;9.688;2022-10-16T07:24:16;13.80;99.90
2407;DHT22;37709;53.480;9.688;2022-10-16T07:26:45;14.40;99.90
2407;DHT22;37709;53.480;9.688;2022-10-16T07:29:18;15.50;99.90
2407;DHT22;37709;53.480;9.688;2022-10-16T07:31:48;16.60;99.90
2407;DHT22;37709;53.480;9.688;2022-10-16T07:34:17;16.50;99.90
2407;DHT22;37709;53.480;9.688;2022-10-16T07:36:48;16.90;99.90
2407;DHT22;37709;53.480;9.688;2022-10-16T07:39:18;16.60;99.90
2407;DHT22;37709;53.480;9.688;2022-10-16T07:41:46;16.50;99.90
2407;DHT22;37709;53.480;9.688;2022-10-16T07:44:13;16.00;99.90
2407;DHT22;37709;53.480;9.688;2022-10-16T07:46:40;17.60;99.90
2407;DHT22;37709;53.480;9.688;2022-10-16T07:49:08;18.50;99.90
2407;DHT22;37709;53.480;9.688;2022-10-16T07:51:36;19.20;99.90
2407;DHT22;37709;53.480;9.688;2022-10-16T07:54:05;19.40;99.90
2407;DHT22;37709;53.480;9.688;2022-10-16T07:56:32;18.80;99.90
2407;DHT22;37709;53.480;9.688;2022-10-16T07:59:00;17.90;99.90
2407;DHT22;37709;53.480;9.688;2022-10-16T08:01:27;17.60;99.90
2407;DHT22;37709;53.480;9.688;2022-10-16T08:03:55;17.00;99.90
2407;DHT22;37709;53.480;9.688;2022-10-16T08:06:23;16.50;99.90
2407;DHT22;37709;53.480;9.688;2022-10-16T08:08:55;16.00;99.90
2407;DHT22;37709;53.480;9.688;2022-10-16T08:11:23;15.80;99.90
2407;DHT22;37709;53.480;9.688;2022-10-16T08:13:51;16.20;99.90
2407;DHT22;37709;53.480;9.688;2022-10-16T08:16:18;17.50;99.90
2407;DHT22;37709;53.480;9.688;2022-10-16T08:18:47;19.00;99.90
2407;DHT22;37709;53.480;9.688;2022-10-16T08:21:16;19.90;99.90
2407;DHT22;37709;53.480;9.688;2022-10-16T08:23:49;19.30;99.90
2407;DHT22;37709;53.480;9.688;2022-10-16T08:26:25;18.50;99.90
2407;DHT22;37709;53.480;9.688;2022-10-16T08:28:54;17.90;99.90
2407;DHT22;37709;53.480;9.688;2022-10-16T08:31:21;19.50;99.90
2407;DHT22;37709;53.480;9.688;2022-10-16T08:33:50;20.40;99.90
2407;DHT22;37709;53.480;9.688;2022-10-16T08:36:18;20.00;99.90
2407;DHT22;37709;53.480;9.688;2022-10-16T08:38:50;19.70;99.90
2407;DHT22;37709;53.480;9.688;2022-10-16T08:50:00;20.80;99.90
2407;DHT22;37709;53.480;9.688;2022-10-16T08:52:32;20.50;99.90
2407;DHT22;37709;53.480;9.688;2022-10-16T08:55:01;20.00;99.90
2407;DHT22;37709;53.480;9.688;2022-10-16T08:57:29;21.90;99.90
2407;DHT22;37709;53.480;9.688;2022-10-16T09:00:05;22.10;99.90
2407;DHT22;37709;53.480;9.688;2022-10-16T09:03:10;22.00;99.90
2407;DHT22;37709;53.480;9.688;2022-10-16T09:11:06;24.30;99.30
2407;DHT22;37709;53.480;9.688;2022-10-16T09:16:32;25.10;97.90
2407;DHT22;37709;53.480;9.688;2022-10-16T09:21:44;26.00;95.40
2407;DHT22;37709;53.480;9.688;2022-10-16T09:24:20;26.90;93.90
2407;DHT22;37709;53.480;9.688;2022-10-16T09:26:53;27.50;92.80
2407;DHT22;37709;53.480;9.688;2022-10-16T09:29:21;26.60;91.90
2407;DHT22;37709;53.480;9.688;2022-10-16T09:31:52;25.60;94.10
2407;DHT22;37709;53.480;9.688;2022-10-16T09:34:32;26.90;92.50
2407;DHT22;37709;53.480;9.688;2022-10-16T09:37:03;26.80;91.70
2407;DHT22;37709;53.480;9.688;2022-10-16T09:39:47;26.70;91.90
2407;DHT22;37709;53.480;9.688;2022-10-16T09:42:20;25.90;92.40
2407;DHT22;37709;53.480;9.688;2022-10-16T09:44:49;26.60;91.30
2407;DHT22;37709;53.480;9.688;2022-10-16T09:47:18;28.30;91.00
2407;DHT22;37709;53.480;9.688;2022-10-16T09:50:20;28.80;88.90
2407;DHT22;37709;53.480;9.688;2022-10-16T09:52:48;29.40;86.00
2407;DHT22;37709;53.480;9.688;2022-10-16T09:55:18;30.20;83.40
2407;DHT22;37709;53.480;9.688;2022-10-16T09:57:52;30.00;82.10
2407;DHT22;37709;53.480;9.688;2022-10-16T10:00:22;29.80;81.30
2407;DHT22;37709;53.480;9.688;2022-10-16T10:02:51;29.10;81.00
2407;DHT22;37709;53.480;9.688;2022-10-16T10:05:26;28.90;82.10
2407;DHT22;37709;53.480;9.688;2022-10-16T10:08:02;28.80;80.80
2407;DHT22;37709;53.480;9.688;2022-10-16T10:10:39;28.70;80.30
2407;DHT22;37709;53.480;9.688;2022-10-16T10:13:22;29.90;80.60
2407;DHT22;37709;53.480;9.688;2022-10-16T10:15:51;31.00;76.40
2407;DHT22;37709;53.480;9.688;2022-10-16T10:18:21;30.00;74.40
2407;DHT22;37709;53.480;9.688;2022-10-16T10:20:58;30.70;75.30
2407;DHT22;37709;53.480;9.688;2022-10-16T10:23:28;31.00;75.90
2407;DHT22;37709;53.480;9.688;2022-10-16T10:26:11;31.70;73.00
2407;DHT22;37709;53.480;9.688;2022-10-16T10:32:00;26.80;78.50
2407;DHT22;37709;53.480;9.688;2022-10-16T10:43:26;29.20;74.30
2407;DHT22;37709;53.480;9.688;2022-10-16T10:46:04;27.90;75.10
2407;DHT22;37709;53.480;9.688;2022-10-16T10:51:11;26.10;79.40
2407;DHT22;37709;53.480;9.688;2022-10-16T10:54:02;27.00;79.90
2407;DHT22;37709;53.480;9.688;2022-10-16T10:56:55;28.00;75.50
2407;DHT22;37709;53.480;9.688;2022-10-16T11:02:41;30.10;70.80
2407;DHT22;37709;53.480;9.688;2022-10-16T11:05:40;29.90;70.50
2407;DHT22;37709;53.480;9.688;2022-10-16T11:08:18;30.00;69.90
2407;DHT22;37709;53.480;9.688;2022-10-16T11:10:54;30.30;70.40
2407;DHT22;37709;53.480;9.688;2022-10-16T11:13:32;32.00;67.00
2407;DHT22;37709;53.480;9.688;2022-10-16T11:16:22;31.30;66.80
2407;DHT22;37709;53.480;9.688;2022-10-16T11:22:46;28.50;69.60
2407;DHT22;37709;53.480;9.688;2022-10-16T11:30:22;27.40;71.20
2407;DHT22;37709;53.480;9.688;2022-10-16T11:35:46;26.20;73.30
2407;DHT22;37709;53.480;9.688;2022-10-16T11:41:44;24.20;75.50
2407;DHT22;37709;53.480;9.688;2022-10-16T11:47:42;26.80;72.30
2407;DHT22;37709;53.480;9.688;2022-10-16T11:50:50;27.60;71.00
2407;DHT22;37709;53.480;9.688;2022-10-16T11:56:03;23.80;78.00
2407;DHT22;37709;53.480;9.688;2022-10-16T11:58:41;24.40;78.20
2407;DHT22;37709;53.480;9.688;2022-10-16T12:04:25;28.00;71.80
2407;DHT22;37709;53.480;9.688;2022-10-16T12:07:24;29.50;69.20
2407;DHT22;37709;53.480;9.688;2022-10-16T12:09:55;27.60;68.50
2407;DHT22;37709;53.480;9.688;2022-10-16T12:15:27;24.30;73.10
2407;DHT22;37709;53.480;9.688;2022-10-16T12:18:22;22.50;77.40
2407;DHT22;37709;53.480;9.688;2022-10-16T12:20:58;20.90;80.80
2407;DHT22;37709;53.480;9.688;2022-10-16T12:23:27;23.00;78.10
2407;DHT22;37709;53.480;9.688;2022-10-16T12:25:56;23.40;75.80
2407;DHT22;37709;53.480;9.688;2022-10-16T12:28:29;24.10;75.50
2407;DHT22;37709;53.480;9.688;2022-10-16T12:31:00;25.10;74.60
2407;DHT22;37709;53.480;9.688;2022-10-16T12:33:37;25.00;72.10
2407;DHT22;37709;53.480;9.688;2022-10-16T12:36:26;22.60;76.40
2407;DHT22;37709;53.480;9.688;2022-10-16T12:38:53;21.30;78.40
2407;DHT22;37709;53.480;9.688;2022-10-16T12:41:26;20.40;81.80
2407;DHT22;37709;53.480;9.688;2022-10-16T12:43:55;19.60;84.10
2407;DHT22;37709;53.480;9.688;2022-10-16T12:51:42;26.00;75.40
2407;DHT22;37709;53.480;9.688;2022-10-16T12:54:14;28.30;70.90
2407;DHT22;37709;53.480;9.688;2022-10-16T13:00:10;30.00;67.40
2407;DHT22;37709;53.480;9.688;2022-10-16T13:08:50;28.40;65.90
2407;DHT22;37709;53.480;9.688;2022-10-16T13:11:35;27.00;66.30
2407;DHT22;37709;53.480;9.688;2022-10-16T13:19:46;27.20;68.90
2407;DHT22;37709;53.480;9.688;2022-10-16T13:25:22;28.70;67.20
2407;DHT22;37709;53.480;9.688;2022-10-16T13:28:06;27.60;66.20
2407;DHT22;37709;53.480;9.688;2022-10-16T13:30:41;27.20;66.80
2407;DHT22;37709;53.480;9.688;2022-10-16T13:33:13;26.70;68.30
2407;DHT22;37709;53.480;9.688;2022-10-16T13:35:54;27.00;67.10
2407;DHT22;37709;53.480;9.688;2022-10-16T13:38:24;27.00;66.30
2407;DHT22;37709;53.480;9.688;2022-10-16T13:40:59;27.10;66.80
2407;DHT22;37709;53.480;9.688;2022-10-16T13:43:36;26.90;67.50
2407;DHT22;37709;53.480;9.688;2022-10-16T13:46:12;26.20;68.10
2407;DHT22;37709;53.480;9.688;2022-10-16T13:48:41;25.50;69.60
2407;DHT22;37709;53.480;9.688;2022-10-16T13:51:17;25.10;70.90
2407;DHT22;37709;53.480;9.688;2022-10-16T13:53:45;24.80;70.30
2407;DHT22;37709;53.480;9.688;2022-10-16T13:56:16;24.80;71.10
2407;DHT22;37709;53.480;9.688;2022-10-16T13:58:44;24.70;71.90
2407;DHT22;37709;53.480;9.688;2022-10-16T14:01:22;24.70;71.80
2407;DHT22;37709;53.480;9.688;2022-10-16T14:04:07;24.60;72.70
2407;DHT22;37709;53.480;9.688;2022-10-16T14:06:36;24.60;71.70
2407;DHT22;37709;53.480;9.688;2022-10-16T14:09:25;24.20;71.50
2407;DHT22;37709;53.480;9.688;2022-10-16T14:12:07;23.50;71.00
2407;DHT22;37709;53.480;9.688;2022-10-16T14:14:41;23.10;73.10
2407;DHT22;37709;53.480;9.688;2022-10-16T14:17:19;22.90;74.20
2407;DHT22;37709;53.480;9.688;2022-10-16T14:19:50;22.60;75.00
2407;DHT22;37709;53.480;9.688;2022-10-16T14:22:37;22.50;76.00
2407;DHT22;37709;53.480;9.688;2022-10-16T14:25:28;22.10;76.30
2407;DHT22;37709;53.480;9.688;2022-10-16T14:28:23;22.10;76.70
2407;DHT22;37709;53.480;9.688;2022-10-16T14:30:58;22.20;75.70
2407;DHT22;37709;53.480;9.688;2022-10-16T14:36:12;21.90;76.00
2407;DHT22;37709;53.480;9.688;2022-10-16T14:38:56;21.30;77.50
2407;DHT22;37709;53.480;9.688;2022-10-16T14:41:25;21.70;77.70
2407;DHT22;37709;53.480;9.688;2022-10-16T14:43:58;21.70;78.00
2407;DHT22;37709;53.480;9.688;2022-10-16T14:46:35;21.40;78.50
2407;DHT22;37709;53.480;9.688;2022-10-16T14:49:19;21.10;78.70
2407;DHT22;37709;53.480;9.688;2022-10-16T14:51:48;21.40;79.10
2407;DHT22;37709;53.480;9.688;2022-10-16T14:54:17;21.20;78.60
2407;DHT22;37709;53.480;9.688;2022-10-16T14:56:48;20.80;79.50
2407;DHT22;37709;53.480;9.688;2022-10-16T14:59:21;20.90;80.80
2407;DHT22;37709;53.480;9.688;2022-10-16T15:01:50;20.80;81.10
2407;DHT22;37709;53.480;9.688;2022-10-16T15:04:18;20.40;81.00
2407;DHT22;37709;53.480;9.688;2022-10-16T15:06:46;20.00;81.20
2407;DHT22;37709;53.480;9.688;2022-10-16T15:09:14;20.10;81.90
2407;DHT22;37709;53.480;9.688;2022-10-16T15:11:43;20.00;81.20
2407;DHT22;37709;53.480;9.688;2022-10-16T15:14:13;19.80;83.60
2407;DHT22;37709;53.480;9.688;2022-10-16T15:16:41;19.70;82.80
2407;DHT22;37709;53.480;9.688;2022-10-16T15:19:09;19.80;83.00
2407;DHT22;37709;53.480;9.688;2022-10-16T15:21:37;19.60;82.50
2407;DHT22;37709;53.480;9.688;2022-10-16T15:24:09;19.00;83.10
2407;DHT22;37709;53.480;9.688;2022-10-16T15:26:47;18.70;82.80
2407;DHT22;37709;53.480;9.688;2022-10-16T15:29:16;18.50;82.60
2407;DHT22;37709;53.480;9.688;2022-10-16T15:31:44;18.30;82.70
2407;DHT22;37709;53.480;9.688;2022-10-16T15:34:13;17.90;83.20
2407;DHT22;37709;53.480;9.688;2022-10-16T15:36:41;17.60;84.40
2407;DHT22;37709;53.480;9.688;2022-10-16T15:39:16;17.40;85.00
2407;DHT22;37709;53.480;9.688;2022-10-16T15:41:45;17.10;86.50
2407;DHT22;37709;53.480;9.688;2022-10-16T15:44:19;17.00;87.20
2407;DHT22;37709;53.480;9.688;2022-10-16T15:46:48;16.80;87.70
2407;DHT22;37709;53.480;9.688;2022-10-16T15:49:16;16.60;88.70
2407;DHT22;37709;53.480;9.688;2022-10-16T15:51:43;16.50;89.10
2407;DHT22;37709;53.480;9.688;2022-10-16T15:54:11;16.30;90.00
2407;DHT22;37709;53.480;9.688;2022-10-16T15:56:39;16.10;90.30
2407;DHT22;37709;53.480;9.688;2022-10-16T15:59:07;15.90;90.60
2407;DHT22;37709;53.480;9.688;2022-10-16T16:01:35;15.70;91.20
2407;DHT22;37709;53.480;9.688;2022-10-16T16:04:04;15.60;91.60
2407;DHT22;37709;53.480;9.688;2022-10-16T16:07:12;15.40;91.80
2407;DHT22;37709;53.480;9.688;2022-10-16T16:09:40;15.20;92.20
2407;DHT22;37709;53.480;9.688;2022-10-16T16:12:08;15.00;92.70
2407;DHT22;37709;53.480;9.688;2022-10-16T16:14:37;14.80;93.20
2407;DHT22;37709;53.480;9.688;2022-10-16T16:17:05;14.70;93.90
2407;DHT22;37709;53.480;9.688;2022-10-16T16:19:33;14.60;94.80
2407;DHT22;37709;53.480;9.688;2022-10-16T16:22:00;14.40;95.70
2407;DHT22;37709;53.480;9.688;2022-10-16T16:24:30;14.20;96.70
2407;DHT22;37709;53.480;9.688;2022-10-16T16:26:58;14.00;97.50
2407;DHT22;37709;53.480;9.688;2022-10-16T16:29:26;13.80;99.40
2407;DHT22;37709;53.480;9.688;2022-10-16T16:31:54;13.70;99.90
2407;DHT22;37709;53.480;9.688;2022-10-16T16:34:26;13.60;99.90
2407;DHT22;37709;53.480;9.688;2022-10-16T16:36:55;13.50;99.90
2407;DHT22;37709;53.480;9.688;2022-10-16T16:39:23;13.30;99.90
2407;DHT22;37709;53.480;9.688;2022-10-16T16:41:51;13.20;99.90
2407;DHT22;37709;53.480;9.688;2022-10-16T16:44:19;13.10;99.90
2407;DHT22;37709;53.480;9.688;2022-10-16T16:46:46;12.90;99.90
2407;DHT22;37709;53.480;9.688;2022-10-16T16:49:14;12.80;99.90
2407;DHT22;37709;53.480;9.688;2022-10-16T16:51:42;12.60;99.90
2407;DHT22;37709;53.480;9.688;2022-10-16T16:54:11;12.50;99.90
2407;DHT22;37709;53.480;9.688;2022-10-16T16:56:41;12.30;99.90
2407;DHT22;37709;53.480;9.688;2022-10-16T16:59:14;12.20;99.90
2407;DHT22;37709;53.480;9.688;2022-10-16T17:01:43;12.10;99.90
2407;DHT22;37709;53.480;9.688;2022-10-16T17:04:12;12.00;99.90
2407;DHT22;37709;53.480;9.688;2022-10-16T17:06:40;12.00;99.90
2407;DHT22;37709;53.480;9.688;2022-10-16T17:09:11;12.00;99.90
2407;DHT22;37709;53.480;9.688;2022-10-16T17:11:43;11.90;99.90
2407;DHT22;37709;53.480;9.688;2022-10-16T17:14:12;11.80;99.90
2407;DHT22;37709;53.480;9.688;2022-10-16T17:16:39;11.70;99.90
2407;DHT22;37709;53.480;9.688;2022-10-16T17:19:16;11.60;99.90
2407;DHT22;37709;53.480;9.688;2022-10-16T17:21:44;11.50;99.90
2407;DHT22;37709;53.480;9.688;2022-10-16T17:24:11;11.40;99.90
2407;DHT22;37709;53.480;9.688;2022-10-16T17:26:39;11.40;99.90
2407;DHT22;37709;53.480;9.688;2022-10-16T17:29:11;11.30;99.90
2407;DHT22;37709;53.480;9.688;2022-10-16T17:31:40;11.30;99.90
2407;DHT22;37709;53.480;9.688;2022-10-16T17:34:08;11.20;99.90
2407;DHT22;37709;53.480;9.688;2022-10-16T17:36:37;11.00;99.90
2407;DHT22;37709;53.480;9.688;2022-10-16T17:39:08;11.00;99.90
2407;DHT22;37709;53.480;9.688;2022-10-16T17:41:35;10.90;99.90
2407;DHT22;37709;53.480;9.688;2022-10-16T17:44:05;10.80;99.90
2407;DHT22;37709;53.480;9.688;2022-10-16T17:46:34;10.70;99.90
2407;DHT22;37709;53.480;9.688;2022-10-16T17:49:08;10.70;99.90
2407;DHT22;37709;53.480;9.688;2022-10-16T17:51:36;10.70;99.90